Time;durP1;ratioP1;P1;durP2;ratioP2;P2;SDS_P1;SDS_P2;PMS_P1;PMS_P2;Temp;Humidity;BMP_temperature;BMP_pressure;BME280_temperature;BME280_humidity;BME280_pressure;Samples;Min_cycle;Max_cycle;Signal;HPM_P1;HPM_P2
2021/03/03 00:01:59;;;;;;;25.72;10.70;;;;;;;0.36;82.54;101318.45;1719786;83;21027;-45
2021/03/03 00:04:27;;;;;;;18.73;8.63;;;;;;;0.32;82.62;101316.60;1719779;82;21031;-44
2021/03/03 00:06:55;;;;;;;22.00;11.10;;;;;;;0.24;82.72;101321.02;1719735;83;21053;-45
2021/03/03 00:09:23;;;;;;;27.50;10.70;;;;;;;0.18;82.77;101318.24;1709812;82;22204;-44
2021/03/03 00:11:51;;;;;;;18.00;9.65;;;;;;;0.12;82.89;101326.51;1706201;84;21211;-43
2021/03/03 00:14:19;;;;;;;21.62;10.98;;;;;;;0.05;83.13;101322.00;1706177;84;21169;-44
2021/03/03 00:16:47;;;;;;;21.68;10.98;;;;;;;-0.03;83.43;101324.23;1706214;82;21003;-42
2021/03/03 00:19:16;;;;;;;19.87;11.03;;;;;;;-0.07;83.68;101335.11;1706141;84;21225;-44
2021/03/03 00:21:44;;;;;;;23.20;10.93;;;;;;;-0.12;83.82;101327.70;1706206;84;21034;-44
2021/03/03 00:24:13;;;;;;;24.77;11.18;;;;;;;-0.18;83.98;101331.26;1706259;84;21383;-45
2021/03/03 00:26:41;;;;;;;26.42;10.72;;;;;;;-0.19;84.16;101327.86;1706160;84;20999;-43
2021/03/03 00:29:09;;;;;;;23.35;10.55;;;;;;;-0.20;84.23;101329.06;1706222;84;21070;-44
2021/03/03 00:31:37;;;;;;;18.37;9.63;;;;;;;-0.23;84.34;101317.48;1706226;84;21059;-42
2021/03/03 00:34:05;;;;;;;19.75;9.90;;;;;;;-0.27;84.45;101328.36;1705994;83;20965;-44
2021/03/03 00:36:33;;;;;;;19.75;10.43;;;;;;;-0.35;84.64;101340.38;1668353;84;21316;-42
2021/03/03 00:39:02;;;;;;;21.85;10.53;;;;;;;-0.36;84.84;101324.65;1672259;84;21094;-44
2021/03/03 00:41:30;;;;;;;22.85;10.40;;;;;;;-0.36;85.02;101333.55;1667630;84;21616;-43
2021/03/03 00:43:58;;;;;;;21.12;9.83;;;;;;;-0.38;85.08;101336.45;1667564;85;21062;-45
2021/03/03 00:46:26;;;;;;;21.30;10.03;;;;;;;-0.38;85.23;101336.83;1667656;84;21042;-44
2021/03/03 00:48:56;;;;;;;22.15;9.40;;;;;;;-0.41;85.30;101340.11;1667574;86;22229;-44
2021/03/03 00:51:24;;;;;;;24.18;9.60;;;;;;;-0.44;85.41;101341.26;1667520;86;20979;-44
2021/03/03 00:53:52;;;;;;;17.07;10.05;;;;;;;-0.43;85.65;101344.27;1667610;86;21038;-45
2021/03/03 00:56:20;;;;;;;15.63;6.95;;;;;;;-0.42;85.66;101346.00;1638588;86;21015;-43
2021/03/03 00:58:49;;;;;;;18.12;7.78;;;;;;;-0.40;85.77;101344.39;1667566;86;21090;-43
2021/03/03 01:01:18;;;;;;;17.40;7.55;;;;;;;-0.38;85.75;101352.09;1667604;86;21218;-44
2021/03/03 01:03:46;;;;;;;18.55;7.78;;;;;;;-0.33;85.82;101351.87;1667552;86;21027;-45
2021/03/03 01:06:16;;;;;;;21.90;9.45;;;;;;;-0.30;85.78;101354.16;1666361;86;21030;-44
2021/03/03 01:08:44;;;;;;;16.48;8.73;;;;;;;-0.27;85.70;101351.27;1684484;84;20910;-45
2021/03/03 01:11:12;;;;;;;17.00;8.73;;;;;;;-0.30;85.71;101354.16;1709473;82;20971;-45
2021/03/03 01:13:41;;;;;;;15.75;8.20;;;;;;;-0.32;85.81;101355.77;1709482;84;21436;-45
2021/03/03 01:16:10;;;;;;;19.05;9.18;;;;;;;-0.26;85.91;101360.22;1709217;84;20975;-46
2021/03/03 01:18:41;;;;;;;15.68;8.38;;;;;;;-0.24;85.82;101360.29;1709465;84;20987;-43
2021/03/03 01:21:09;;;;;;;14.98;8.48;;;;;;;-0.25;85.77;101367.46;1709403;82;21023;-44
2021/03/03 01:23:40;;;;;;;13.93;8.10;;;;;;;-0.30;85.83;101365.61;1709483;84;21038;-45
2021/03/03 01:26:08;;;;;;;13.75;7.45;;;;;;;-0.33;86.01;101368.41;1709510;84;21389;-45
2021/03/03 01:28:36;;;;;;;13.28;7.28;;;;;;;-0.36;86.02;101368.30;1685374;84;20975;-44
2021/03/03 01:31:04;;;;;;;19.27;8.95;;;;;;;-0.39;86.25;101362.66;1709455;84;21027;-43
2021/03/03 01:33:32;;;;;;;15.93;7.42;;;;;;;-0.42;86.45;101367.62;1709478;84;20931;-45
2021/03/03 01:36:00;;;;;;;15.35;7.78;;;;;;;-0.48;86.41;101366.11;1709510;84;20952;-44
2021/03/03 01:38:28;;;;;;;15.83;7.80;;;;;;;-0.51;86.71;101376.16;1709434;84;21213;-45
2021/03/03 01:40:56;;;;;;;17.02;7.33;;;;;;;-0.54;86.92;101376.89;1709445;82;20967;-44
2021/03/03 01:43:24;;;;;;;13.22;7.45;;;;;;;-0.53;86.98;101386.68;1709425;83;21340;-44
2021/03/03 01:45:54;;;;;;;26.95;7.70;;;;;;;-0.57;86.99;101382.27;1709437;84;21013;-43
2021/03/03 01:48:22;;;;;;;17.00;8.75;;;;;;;-0.61;87.16;101385.96;1709550;84;20944;-44
2021/03/03 01:50:50;;;;;;;16.82;8.10;;;;;;;-0.63;87.32;101387.96;1709515;84;21336;-45
2021/03/03 01:53:18;;;;;;;14.10;7.78;;;;;;;-0.65;87.39;101387.88;1709465;84;21042;-42
2021/03/03 01:55:46;;;;;;;12.55;7.62;;;;;;;-0.66;87.49;101399.28;1709419;82;21054;-45
2021/03/03 01:58:15;;;;;;;12.85;7.78;;;;;;;-0.69;87.46;101400.42;1709457;84;20947;-44
2021/03/03 02:00:43;;;;;;;13.83;7.10;;;;;;;-0.74;87.59;101401.48;1709486;84;20912;-44
2021/03/03 02:03:12;;;;;;;13.10;7.30;;;;;;;-0.75;87.64;101403.56;1709495;82;22280;-44
2021/03/03 02:05:41;;;;;;;14.13;7.25;;;;;;;-0.78;87.82;101403.02;1709351;84;21015;-43
2021/03/03 02:08:26;;;;;;;14.60;7.65;;;;;;;-0.79;87.91;101405.52;1709436;84;20992;-45
2021/03/03 02:11:18;;;;;;;15.80;8.23;;;;;;;-0.79;87.93;101405.09;1695267;82;21030;-43
2021/03/03 02:13:59;;;;;;;14.50;7.75;;;;;;;-0.78;87.99;101413.61;1704206;83;21022;-43
2021/03/03 02:16:28;;;;;;;13.72;7.10;;;;;;;-0.83;87.95;101408.73;1678297;84;21347;-43
2021/03/03 02:18:58;;;;;;;14.65;7.83;;;;;;;-0.83;88.04;101411.27;1704076;84;20966;-43
2021/03/03 02:21:43;;;;;;;10.88;6.70;;;;;;;-0.88;88.01;101413.60;1678675;82;20923;-43
2021/03/03 02:24:19;;;;;;;23.73;7.95;;;;;;;-0.93;88.27;101419.75;1704134;82;21528;-43
2021/03/03 02:26:49;;;;;;;13.25;7.33;;;;;;;-0.92;88.37;101417.67;1704121;82;21074;-44
2021/03/03 02:29:21;;;;;;;16.62;8.85;;;;;;;-0.92;88.45;101417.67;1704210;84;21343;-44
2021/03/03 02:31:50;;;;;;;13.58;8.08;;;;;;;-0.91;88.45;101428.73;1704168;84;21034;-44
2021/03/03 02:34:20;;;;;;;16.55;8.03;;;;;;;-0.88;88.53;101425.93;1704256;82;21026;-45
2021/03/03 02:36:48;;;;;;;17.20;7.67;;;;;;;-0.90;88.49;101432.59;1704281;84;21065;-45
2021/03/03 02:39:17;;;;;;;15.03;7.12;;;;;;;-0.87;88.56;101437.84;1704331;84;21014;-44
2021/03/03 02:41:44;;;;;;;16.12;8.25;;;;;;;-0.87;88.57;101438.23;1704244;82;21384;-44
2021/03/03 02:44:12;;;;;;;16.60;7.62;;;;;;;-0.85;88.62;101448.06;1655722;84;20974;-44
2021/03/03 02:46:44;;;;;;;15.08;7.87;;;;;;;-0.78;88.59;101432.68;1704228;82;21018;-45
2021/03/03 02:49:17;;;;;;;16.73;7.40;;;;;;;-0.78;88.44;101447.52;1704186;84;20971;-43
2021/03/03 02:51:45;;;;;;;14.53;6.72;;;;;;;-0.78;88.41;101454.30;1704278;84;21022;-45
2021/03/03 02:54:14;;;;;;;12.33;6.87;;;;;;;-0.77;88.44;101457.30;1704311;84;21208;-43
2021/03/03 02:56:42;;;;;;;15.05;7.03;;;;;;;-0.76;88.44;101459.05;1704220;82;20971;-43
2021/03/03 02:59:46;;;;;;;13.95;7.75;;;;;;;-0.71;88.37;101464.34;1704293;84;20959;-45
2021/03/03 03:02:14;;;;;;;12.53;6.75;;;;;;;-0.69;88.28;101466.12;1704216;82;20975;-44
2021/03/03 03:05:03;;;;;;;14.65;6.65;;;;;;;-0.69;88.22;101470.36;1704386;84;21650;-44
2021/03/03 03:07:50;;;;;;;12.50;7.12;;;;;;;-0.70;88.22;101468.20;1682607;84;21014;-45
2021/03/03 03:10:58;;;;;;;10.03;6.05;;;;;;;-0.73;88.20;101475.32;1697685;84;21166;-42
2021/03/03 03:13:43;;;;;;;19.90;6.30;;;;;;;-0.73;88.26;101468.08;1677334;84;20952;-44
2021/03/03 03:16:29;;;;;;;11.83;6.45;;;;;;;-0.70;88.21;101466.08;1697427;84;21505;-42
2021/03/03 03:18:58;;;;;;;10.23;5.67;;;;;;;-0.66;88.14;101466.27;1651416;84;21078;-45
2021/03/03 03:21:27;;;;;;;13.53;6.97;;;;;;;-0.65;88.04;101481.13;1719745;83;21216;-42
2021/03/03 03:23:55;;;;;;;9.93;6.15;;;;;;;-0.65;87.99;101476.91;1719762;83;20951;-44
2021/03/03 03:26:23;;;;;;;11.15;6.10;;;;;;;-0.67;87.93;101474.70;1719862;83;21563;-45
2021/03/03 03:28:51;;;;;;;8.53;5.40;;;;;;;-0.66;87.96;101480.67;1719775;83;21030;-43
2021/03/03 03:31:18;;;;;;;16.02;6.12;;;;;;;-0.70;87.93;101482.20;1719895;83;20959;-44
2021/03/03 03:33:47;;;;;;;9.63;5.62;;;;;;;-0.71;88.01;101495.71;1719836;83;21459;-43
2021/03/03 03:36:15;;;;;;;13.62;5.53;;;;;;;-0.67;88.00;101485.28;1719753;83;21332;-45
2021/03/03 03:38:43;;;;;;;14.60;6.65;;;;;;;-0.65;87.93;101488.77;1719783;83;21552;-42
2021/03/03 03:41:11;;;;;;;9.60;5.67;;;;;;;-0.66;87.89;101501.87;1719746;82;22035;-42
2021/03/03 03:43:40;;;;;;;8.20;5.05;;;;;;;-0.69;87.81;101496.65;1630822;86;21042;-44
2021/03/03 03:46:08;;;;;;;13.55;5.85;;;;;;;-0.74;87.94;101496.47;1693284;83;21375;-44
2021/03/03 03:48:36;;;;;;;7.85;4.90;;;;;;;-0.73;87.97;101501.14;1693423;83;21066;-44
2021/03/03 03:51:07;;;;;;;10.28;5.42;;;;;;;-0.76;87.97;101494.64;1719817;83;20959;-42
2021/03/03 03:53:36;;;;;;;15.00;6.00;;;;;;;-0.75;88.05;101498.93;1719816;83;21548;-44
2021/03/03 03:56:07;;;;;;;10.10;5.25;;;;;;;-0.74;88.02;101504.48;1693315;83;21479;-43
2021/03/03 03:58:38;;;;;;;6.25;4.58;;;;;;;-0.76;88.03;101503.16;1693711;83;21442;-43
2021/03/03 04:01:06;;;;;;;9.60;5.55;;;;;;;-0.80;88.01;101502.53;1719815;83;20947;-44
2021/03/03 04:03:34;;;;;;;10.32;5.62;;;;;;;-0.79;88.17;101500.87;1719720;83;20979;-44
2021/03/03 04:06:02;;;;;;;9.53;5.33;;;;;;;-0.78;88.19;101511.09;1719711;82;21057;-45
2021/03/03 04:08:30;;;;;;;9.15;5.33;;;;;;;-0.78;88.12;101500.06;1719863;83;20986;-44
2021/03/03 04:10:58;;;;;;;13.48;5.28;;;;;;;-0.78;88.15;101505.15;1708805;83;21162;-42
2021/03/03 04:13:26;;;;;;;9.05;5.42;;;;;;;-0.81;88.07;101503.75;1706180;84;20960;-43
2021/03/03 04:15:54;;;;;;;8.50;4.65;;;;;;;-0.83;88.19;101507.89;1706272;84;20960;-44
2021/03/03 04:18:22;;;;;;;11.20;5.47;;;;;;;-0.85;88.13;101512.05;1706236;83;20968;-43
2021/03/03 04:20:50;;;;;;;6.10;4.03;;;;;;;-0.87;88.28;101509.03;1685877;84;21031;-43
2021/03/03 04:23:18;;;;;;;10.28;4.87;;;;;;;-0.87;88.31;101505.22;1706296;84;21370;-43
2021/03/03 04:25:46;;;;;;;14.15;4.92;;;;;;;-0.84;88.30;101516.33;1706240;84;21173;-44
2021/03/03 04:28:14;;;;;;;13.28;5.83;;;;;;;-0.85;88.22;101509.08;1706258;84;21047;-44
2021/03/03 04:30:42;;;;;;;8.68;5.17;;;;;;;-0.88;88.20;101520.00;1706216;84;21491;-43
2021/03/03 04:33:13;;;;;;;12.45;5.55;;;;;;;-0.90;88.20;101519.03;1706281;84;20920;-43
2021/03/03 04:35:42;;;;;;;7.33;5.03;;;;;;;-0.94;88.24;101518.43;1706202;84;21384;-43
2021/03/03 04:38:10;;;;;;;7.15;4.50;;;;;;;-0.97;88.35;101528.87;1706100;82;21812;-45
2021/03/03 04:40:39;;;;;;;11.25;5.45;;;;;;;-0.97;88.45;101531.00;1706088;82;21480;-44
2021/03/03 04:43:07;;;;;;;8.78;4.95;;;;;;;-0.93;88.47;101538.38;1706214;84;21042;-43
2021/03/03 04:45:35;;;;;;;9.10;5.15;;;;;;;-0.94;88.38;101550.20;1706301;84;20948;-45
2021/03/03 04:48:05;;;;;;;12.63;5.10;;;;;;;-0.96;88.39;101550.54;1706157;82;21210;-45
2021/03/03 04:50:33;;;;;;;9.85;5.50;;;;;;;-0.94;88.48;101550.20;1706196;82;20963;-42
2021/03/03 04:53:01;;;;;;;10.93;5.72;;;;;;;-0.92;88.48;101550.30;1706241;82;21098;-44
2021/03/03 04:55:32;;;;;;;9.38;4.30;;;;;;;-0.87;88.37;101559.88;1706190;84;21035;-43
2021/03/03 04:58:00;;;;;;;10.88;5.67;;;;;;;-0.83;88.25;101562.56;1706239;82;20979;-42
2021/03/03 05:00:27;;;;;;;8.20;4.80;;;;;;;-0.80;88.08;101564.83;1706199;84;21388;-44
2021/03/03 05:02:55;;;;;;;11.22;4.72;;;;;;;-0.78;87.96;101572.54;1706193;84;21035;-44
2021/03/03 05:05:23;;;;;;;7.97;4.97;;;;;;;-0.75;87.94;101576.49;1706175;83;21027;-43
2021/03/03 05:07:51;;;;;;;10.70;5.35;;;;;;;-0.74;87.85;101578.23;1706178;83;20959;-45
2021/03/03 05:10:19;;;;;;;8.40;4.80;;;;;;;-0.72;87.81;101575.36;1711377;83;20943;-45
2021/03/03 05:12:47;;;;;;;6.67;4.20;;;;;;;-0.68;87.74;101578.92;1719743;82;21317;-43
2021/03/03 05:15:16;;;;;;;11.97;5.17;;;;;;;-0.65;87.66;101586.27;1719718;83;21082;-43
2021/03/03 05:17:43;;;;;;;13.98;5.30;;;;;;;-0.60;87.43;101595.01;1719779;82;20998;-43
2021/03/03 05:20:13;;;;;;;7.70;4.62;;;;;;;-0.59;87.34;101592.94;1719667;83;21031;-43
2021/03/03 05:22:41;;;;;;;10.23;4.97;;;;;;;-0.56;87.22;101591.33;1719718;83;20998;-44
2021/03/03 05:25:11;;;;;;;10.43;5.08;;;;;;;-0.54;87.11;101598.63;1719755;83;21219;-44
2021/03/03 05:27:39;;;;;;;6.58;4.45;;;;;;;-0.48;86.75;101597.24;1719629;83;21010;-44
2021/03/03 05:30:10;;;;;;;9.10;4.78;;;;;;;-0.44;86.54;101607.14;1719701;83;21026;-45
2021/03/03 05:32:38;;;;;;;8.58;4.50;;;;;;;-0.41;86.40;101612.36;1719691;83;21058;-45
2021/03/03 05:35:08;;;;;;;12.63;5.62;;;;;;;-0.40;86.36;101604.34;1719729;83;20951;-44
2021/03/03 05:37:36;;;;;;;7.40;4.22;;;;;;;-0.36;86.21;101608.76;1719845;83;22261;-44
2021/03/03 05:40:05;;;;;;;7.15;5.15;;;;;;;-0.33;86.21;101608.89;1719691;83;21014;-43
2021/03/03 05:42:36;;;;;;;11.63;4.50;;;;;;;-0.27;86.00;101613.39;1719628;82;20947;-45
2021/03/03 05:45:06;;;;;;;5.05;3.67;;;;;;;-0.22;85.63;101615.73;1719701;83;21224;-44
2021/03/03 05:47:36;;;;;;;7.10;4.20;;;;;;;-0.19;85.61;101622.23;1719744;83;20899;-45
2021/03/03 05:50:06;;;;;;;8.15;4.05;;;;;;;-0.18;85.50;101622.31;1719749;83;21426;-43
2021/03/03 05:52:35;;;;;;;6.83;4.05;;;;;;;-0.16;85.39;101624.52;1719609;83;20987;-42
2021/03/03 05:55:04;;;;;;;7.50;4.50;;;;;;;-0.07;85.18;101629.54;1719738;82;21177;-45
2021/03/03 05:57:32;;;;;;;8.83;4.67;;;;;;;-0.02;85.02;101635.70;1719748;83;21639;-42
2021/03/03 06:00:04;;;;;;;6.03;3.85;;;;;;;0.02;84.85;101640.53;1719705;83;20991;-43
2021/03/03 06:02:33;;;;;;;7.17;4.58;;;;;;;0.04;84.65;101636.38;1719696;83;21377;-42
2021/03/03 06:05:02;;;;;;;12.63;5.58;;;;;;;0.09;84.40;101641.27;1719682;83;20979;-44
2021/03/03 06:07:30;;;;;;;7.70;4.30;;;;;;;0.15;84.30;101641.55;1719704;83;20903;-44
2021/03/03 06:09:58;;;;;;;6.45;3.90;;;;;;;0.22;83.67;101633.36;1718182;82;21363;-45
2021/03/03 06:12:26;;;;;;;9.83;4.22;;;;;;;0.26;83.35;101640.33;1686476;84;20935;-46
2021/03/03 06:14:55;;;;;;;11.38;4.40;;;;;;;0.31;83.21;101640.92;1706110;83;20904;-45
2021/03/03 06:17:24;;;;;;;6.47;4.00;;;;;;;0.34;82.91;101643.59;1706082;84;20956;-45
2021/03/03 06:19:52;;;;;;;7.65;3.92;;;;;;;0.39;82.60;101645.96;1706262;83;20960;-44
2021/03/03 06:22:26;;;;;;;8.53;3.95;;;;;;;0.45;82.34;101644.94;1686277;84;21023;-43
2021/03/03 06:26:28;;;;;;;10.00;4.08;;;;;;;0.55;81.89;101641.96;1776962;79;22567;-44
2021/03/03 06:28:56;;;;;;;7.17;3.95;;;;;;;0.63;81.47;101640.13;1749509;82;20948;-44
2021/03/03 06:31:31;;;;;;;7.45;3.45;;;;;;;0.68;80.89;101650.13;1749460;81;21205;-44
2021/03/03 06:34:22;;;;;;;9.60;4.30;;;;;;;0.74;80.81;101650.37;1749142;81;21070;-43
2021/03/03 06:37:00;;;;;;;5.75;3.40;;;;;;;0.82;80.41;101647.72;1749491;82;20915;-44
2021/03/03 06:39:35;;;;;;;6.15;3.58;;;;;;;0.92;80.03;101662.14;1749517;82;21022;-46
2021/03/03 06:42:08;;;;;;;7.00;3.45;;;;;;;0.98;79.47;101664.94;1728529;82;20943;-46
2021/03/03 06:44:54;;;;;;;6.97;3.55;;;;;;;1.04;79.26;101669.00;1719605;83;21218;-45
2021/03/03 06:47:23;;;;;;;5.25;3.83;;;;;;;1.09;79.10;101667.50;1719687;83;21571;-44
2021/03/03 06:49:52;;;;;;;5.28;3.45;;;;;;;1.20;78.46;101663.25;1719696;82;21153;-46
2021/03/03 06:52:41;;;;;;;7.60;3.65;;;;;;;1.26;77.84;101666.03;1719700;83;21501;-45
2021/03/03 06:55:10;;;;;;;6.60;3.30;;;;;;;1.25;77.28;101655.36;1719695;83;21112;-44
2021/03/03 06:57:38;;;;;;;6.97;3.30;;;;;;;1.26;77.24;101673.30;1719620;83;21376;-44
2021/03/03 07:00:09;;;;;;;8.53;3.25;;;;;;;1.29;77.07;101667.42;1719561;82;20927;-44
2021/03/03 07:02:38;;;;;;;15.08;3.08;;;;;;;1.33;76.96;101659.07;1719574;83;21014;-44
2021/03/03 07:05:11;;;;;;;6.45;3.67;;;;;;;1.37;76.68;101654.55;1719517;82;21022;-44
2021/03/03 07:07:40;;;;;;;7.78;3.80;;;;;;;1.43;76.73;101650.09;1719686;82;21034;-45
2021/03/03 07:10:10;;;;;;;8.20;3.00;;;;;;;1.45;76.06;101651.44;1719698;82;21197;-45
2021/03/03 07:12:49;;;;;;;4.05;3.08;;;;;;;1.47;76.24;101649.39;1719631;82;21584;-44
2021/03/03 07:15:16;;;;;;;6.17;3.05;;;;;;;1.56;76.12;101647.21;1719633;83;21085;-44
2021/03/03 07:17:45;;;;;;;4.80;3.33;;;;;;;1.64;75.25;101656.44;1719545;82;21113;-45
2021/03/03 07:20:15;;;;;;;6.78;3.10;;;;;;;1.68;74.88;101661.23;1719660;83;20987;-45
2021/03/03 07:22:48;;;;;;;8.75;3.10;;;;;;;1.74;75.09;101660.60;1719700;83;22258;-45
2021/03/03 07:25:18;;;;;;;4.25;3.12;;;;;;;1.79;74.23;101661.25;1719752;83;20954;-43
2021/03/03 07:27:48;;;;;;;7.40;3.58;;;;;;;1.77;74.12;101673.09;1720494;83;21156;-43
2021/03/03 07:30:21;;;;;;;7.20;3.33;;;;;;;1.77;74.15;101656.87;1720433;83;21463;-44
2021/03/03 07:32:51;;;;;;;8.25;3.42;;;;;;;1.81;74.56;101662.17;1720376;83;21570;-45
2021/03/03 07:35:21;;;;;;;4.85;2.77;;;;;;;1.91;74.16;101665.94;1718154;83;21345;-44
2021/03/03 07:37:55;;;;;;;4.95;3.40;;;;;;;1.93;73.47;101657.92;1719826;83;20991;-45
2021/03/03 07:40:29;;;;;;;6.97;3.08;;;;;;;1.94;73.06;101646.00;1719803;82;20959;-44
2021/03/03 07:43:03;;;;;;;4.08;2.70;;;;;;;1.93;73.58;101664.30;1719858;83;21002;-45
2021/03/03 07:45:39;;;;;;;5.12;2.80;;;;;;;2.00;72.98;101652.60;1719859;82;21047;-45
2021/03/03 07:48:10;;;;;;;3.70;3.00;;;;;;;2.01;72.90;101659.06;1719870;83;22203;-44
2021/03/03 07:50:40;;;;;;;6.03;3.20;;;;;;;2.07;72.33;101662.64;1719852;83;21022;-45
2021/03/03 07:53:09;;;;;;;4.47;2.70;;;;;;;2.08;72.79;101666.54;1719820;83;21003;-44
2021/03/03 07:55:37;;;;;;;8.83;3.10;;;;;;;2.14;72.98;101667.14;1719774;83;20959;-45
2021/03/03 07:58:06;;;;;;;6.40;2.72;;;;;;;2.28;72.16;101663.41;1719848;83;20939;-46
2021/03/03 08:00:37;;;;;;;10.05;3.42;;;;;;;2.40;72.95;101668.47;1719869;83;21457;-46
2021/03/03 08:03:06;;;;;;;16.57;3.42;;;;;;;2.55;71.71;101674.55;1719822;83;21509;-46
2021/03/03 08:05:39;;;;;;;7.87;2.80;;;;;;;2.58;70.79;101679.77;1715826;82;21038;-44
2021/03/03 08:08:26;;;;;;;5.45;2.60;;;;;;;2.55;70.80;101670.28;1719800;83;20943;-43
2021/03/03 08:11:08;;;;;;;6.67;2.80;;;;;;;2.60;70.43;101673.02;1719844;82;21006;-45
2021/03/03 08:13:39;;;;;;;4.42;3.12;;;;;;;2.67;70.20;101677.93;1719803;83;21206;-45
2021/03/03 08:16:07;;;;;;;5.92;2.12;;;;;;;2.80;69.91;101686.88;1719653;83;20955;-46
2021/03/03 08:18:56;;;;;;;6.00;2.90;;;;;;;2.88;69.53;101677.77;1719873;83;20944;-45
2021/03/03 08:21:28;;;;;;;5.12;2.52;;;;;;;2.99;69.48;101685.79;1719797;83;21472;-45
2021/03/03 08:24:01;;;;;;;5.70;2.77;;;;;;;3.07;69.09;101686.05;1719883;83;21572;-44
2021/03/03 08:26:33;;;;;;;3.65;2.10;;;;;;;3.16;68.78;101696.56;1709495;82;21397;-45
2021/03/03 08:29:23;;;;;;;5.15;2.98;;;;;;;3.16;67.66;101714.08;1706243;84;21037;-44
2021/03/03 08:31:52;;;;;;;7.35;2.72;;;;;;;3.08;68.02;101687.36;1706217;84;21039;-46
2021/03/03 08:34:20;;;;;;;9.55;2.50;;;;;;;3.07;68.54;101695.85;1706199;83;21063;-44
2021/03/03 08:36:50;;;;;;;5.50;2.77;;;;;;;3.07;68.47;101695.00;1686548;84;20944;-45
2021/03/03 08:39:24;;;;;;;4.08;2.90;;;;;;;3.09;68.69;101696.77;1706259;82;21375;-45
2021/03/03 08:41:52;;;;;;;3.05;2.30;;;;;;;3.19;69.10;101695.81;1706156;82;21011;-44
2021/03/03 08:44:21;;;;;;;6.22;2.70;;;;;;;3.31;68.14;101706.42;1706286;84;21058;-45
2021/03/03 08:46:51;;;;;;;3.58;2.45;;;;;;;3.43;68.63;101714.89;1706120;82;20928;-44
2021/03/03 08:49:25;;;;;;;8.48;2.55;;;;;;;3.59;66.60;101708.55;1706189;84;21043;-46
2021/03/03 08:52:09;;;;;;;7.17;2.95;;;;;;;3.43;67.02;101726.02;1706380;84;21376;-46
2021/03/03 08:54:43;;;;;;;8.15;3.00;;;;;;;3.30;67.25;101734.12;1706121;83;21525;-45
2021/03/03 08:57:35;;;;;;;7.35;2.30;;;;;;;3.37;68.04;101730.92;1706369;84;21655;-44
2021/03/03 09:00:05;;;;;;;5.87;2.72;;;;;;;3.52;67.58;101732.23;1706229;84;21014;-44
2021/03/03 09:02:40;;;;;;;6.35;2.45;;;;;;;3.76;66.94;101726.98;1706299;82;20980;-45
2021/03/03 09:05:12;;;;;;;4.28;2.55;;;;;;;3.94;66.17;101731.81;1706198;82;21207;-46
2021/03/03 09:07:41;;;;;;;3.83;2.00;;;;;;;4.08;65.62;101733.89;1706187;82;20948;-43
2021/03/03 09:10:16;;;;;;;6.62;2.55;;;;;;;4.14;65.54;101739.19;1706324;84;21671;-45
2021/03/03 09:12:44;;;;;;;4.25;2.37;;;;;;;4.31;65.50;101739.69;1706205;83;21225;-44
2021/03/03 09:15:15;;;;;;;4.55;2.62;;;;;;;4.39;64.03;101728.34;1706275;84;20997;-45
2021/03/03 09:17:44;;;;;;;12.10;2.72;;;;;;;4.21;63.14;101755.22;1706390;82;21547;-47
2021/03/03 09:20:17;;;;;;;3.08;2.45;;;;;;;4.05;64.16;101747.90;1706130;84;21031;-46
2021/03/03 09:22:46;;;;;;;5.20;2.75;;;;;;;4.07;63.83;101751.38;1686828;84;21019;-46
2021/03/03 09:25:17;;;;;;;4.37;2.12;;;;;;;4.14;64.82;101748.16;1707530;83;21035;-49
2021/03/03 09:27:57;;;;;;;8.95;2.55;;;;;;;4.37;64.49;101747.94;1719301;83;21023;-43
2021/03/03 09:30:27;;;;;;;4.15;2.35;;;;;;;4.63;62.57;101747.78;1719809;83;22314;-44
2021/03/03 09:32:55;;;;;;;3.00;1.90;;;;;;;4.70;61.98;101748.42;1719746;82;21011;-46
2021/03/03 09:35:29;;;;;;;8.63;2.20;;;;;;;4.63;61.71;101757.64;1719680;83;21022;-45
2021/03/03 09:37:57;;;;;;;6.78;2.25;;;;;;;4.60;61.53;101740.47;1719652;83;20988;-45
2021/03/03 09:40:29;;;;;;;3.10;2.08;;;;;;;4.55;61.20;101760.00;1719774;82;21057;-45
2021/03/03 09:42:59;;;;;;;5.22;2.35;;;;;;;4.76;60.44;101749.86;1719870;83;21508;-46
2021/03/03 09:45:27;;;;;;;2.58;1.65;;;;;;;4.76;60.44;101749.86;1719609;83;20959;-47
2021/03/03 09:47:57;;;;;;;3.98;1.72;;;;;;;4.82;59.91;101764.12;1719743;83;20915;-43
2021/03/03 09:50:30;;;;;;;5.17;2.35;;;;;;;4.78;59.33;101755.90;1719699;82;21081;-41
2021/03/03 09:52:59;;;;;;;3.17;1.80;;;;;;;4.74;59.80;101749.80;1719706;83;21556;-46
2021/03/03 09:55:32;;;;;;;6.30;1.67;;;;;;;4.79;59.84;101745.20;1719771;83;22399;-44
2021/03/03 09:58:00;;;;;;;4.05;2.02;;;;;;;4.87;59.16;101765.11;1719699;83;21038;-43
2021/03/03 10:00:35;;;;;;;4.55;2.00;;;;;;;4.84;59.63;101753.92;1719758;83;21552;-45
2021/03/03 10:03:10;;;;;;;2.97;1.63;;;;;;;5.06;59.87;101757.04;1694390;83;21034;-46
2021/03/03 10:05:41;;;;;;;4.42;2.00;;;;;;;5.34;59.86;101750.86;1719560;82;21627;-46
2021/03/03 10:08:13;;;;;;;3.42;1.98;;;;;;;5.41;57.65;101743.75;1719757;83;21202;-44
2021/03/03 10:10:48;;;;;;;6.42;1.98;;;;;;;5.42;58.47;101734.36;1719632;83;21050;-47
2021/03/03 10:13:19;;;;;;;3.45;1.75;;;;;;;5.48;56.41;101729.79;1693566;83;21022;-43
2021/03/03 10:15:47;;;;;;;4.87;2.15;;;;;;;5.43;57.23;101742.52;1719719;83;21543;-46
2021/03/03 10:18:16;;;;;;;5.10;1.98;;;;;;;5.44;56.68;101743.84;1719715;83;21050;-46
2021/03/03 10:20:51;;;;;;;3.27;1.92;;;;;;;5.52;56.90;101735.45;1719637;83;21089;-45
2021/03/03 10:23:26;;;;;;;3.40;1.70;;;;;;;5.60;57.30;101745.47;1719893;83;21038;-45
2021/03/03 10:26:07;;;;;;;3.85;1.57;;;;;;;6.26;55.15;101736.17;1716141;83;21667;-44
2021/03/03 10:28:36;;;;;;;10.72;1.47;;;;;;;6.26;55.15;101736.17;1706136;84;21003;-44
2021/03/03 10:31:07;;;;;;;5.03;1.50;;;;;;;6.37;51.92;101748.84;1706131;82;21070;-44
2021/03/03 10:33:38;;;;;;;3.98;1.60;;;;;;;6.08;52.05;101748.25;1706145;82;22177;-44
2021/03/03 10:36:15;;;;;;;8.63;1.20;;;;;;;5.89;51.74;101748.70;1706053;82;21039;-44
2021/03/03 10:38:55;;;;;;;4.42;1.20;;;;;;;5.77;51.45;101739.42;1706275;84;20971;-45
2021/03/03 10:41:30;;;;;;;1.80;1.30;;;;;;;5.53;51.06;101754.72;1706099;82;21007;-44
2021/03/03 10:44:01;;;;;;;3.50;1.72;;;;;;;5.53;51.06;101754.72;1706171;84;21209;-46
2021/03/03 10:46:30;;;;;;;1.87;1.22;;;;;;;5.62;52.75;101745.08;1685392;84;21336;-46
2021/03/03 10:49:13;;;;;;;3.42;1.37;;;;;;;5.62;52.75;101745.08;1706191;82;21493;-44
2021/03/03 10:51:42;;;;;;;2.42;1.30;;;;;;;5.73;52.48;101760.34;1706249;83;21545;-43
2021/03/03 10:54:11;;;;;;;2.90;1.35;;;;;;;5.61;50.84;101742.95;1706134;84;20944;-44
2021/03/03 10:56:43;;;;;;;3.85;1.52;;;;;;;5.53;52.40;101753.88;1706140;83;20952;-43
2021/03/03 10:59:27;;;;;;;25.72;2.00;;;;;;;5.59;52.24;101740.77;1706211;84;22276;-46
2021/03/03 11:02:02;;;;;;;2.17;1.32;;;;;;;5.70;52.14;101740.12;1705011;84;20947;-46
2021/03/03 11:04:43;;;;;;;6.08;1.60;;;;;;;5.64;51.73;101740.84;1706088;84;21043;-44
2021/03/03 11:07:13;;;;;;;2.62;1.20;;;;;;;5.65;50.98;101747.72;1706269;84;21585;-45
2021/03/03 11:09:52;;;;;;;3.20;1.47;;;;;;;5.68;49.42;101751.64;1706189;84;21156;-46
2021/03/03 11:12:24;;;;;;;3.05;1.20;;;;;;;5.68;49.42;101751.64;1706204;83;21380;-44
2021/03/03 11:14:53;;;;;;;3.08;1.67;;;;;;;5.92;51.10;101735.45;1706231;84;21046;-44
2021/03/03 11:17:21;;;;;;;3.27;1.50;;;;;;;5.97;49.86;101736.02;1706248;84;21027;-45
2021/03/03 11:19:49;;;;;;;1.25;1.15;;;;;;;5.97;49.86;101736.02;1706261;84;21075;-47
2021/03/03 11:22:17;;;;;;;2.92;1.20;;;;;;;6.02;49.16;101746.00;1706359;83;20956;-44
2021/03/03 11:24:45;;;;;;;3.50;1.20;;;;;;;6.11;49.67;101734.16;1706308;82;21205;-46
2021/03/03 11:27:13;;;;;;;3.10;1.80;;;;;;;6.39;49.12;101740.73;1706127;83;21082;-46
2021/03/03 11:29:41;;;;;;;7.03;1.60;;;;;;;6.39;49.21;101733.02;1706294;84;21035;-47
2021/03/03 11:32:11;;;;;;;1.85;1.50;;;;;;;6.41;48.65;101742.04;1705328;82;21031;-45
2021/03/03 11:34:39;;;;;;;1.75;1.20;;;;;;;6.29;47.59;101731.97;1706279;84;21007;-44
2021/03/03 11:37:07;;;;;;;3.70;1.52;;;;;;;6.25;49.20;101730.58;1706232;82;21215;-45
2021/03/03 11:39:35;;;;;;;1.92;1.17;;;;;;;6.39;47.96;101732.14;1706177;83;21027;-45
2021/03/03 11:42:04;;;;;;;5.85;1.35;;;;;;;6.25;48.11;101737.90;1706324;82;20999;-47
2021/03/03 11:44:32;;;;;;;3.12;1.15;;;;;;;6.25;48.11;101737.90;1706287;83;21504;-44
2021/03/03 11:47:00;;;;;;;4.47;1.67;;;;;;;6.24;47.41;101740.02;1706184;83;21082;-45